createdAt,value
2019-01-04T00:00:33.476Z,79.04
2019-01-04T00:03:02.010Z,79.10
2019-01-04T00:05:30.561Z,79.28
2019-01-04T00:07:59.086Z,79.17
2019-01-04T00:10:27.523Z,79.14
2019-01-04T00:12:56.181Z,79.26
2019-01-04T00:15:24.629Z,79.54
2019-01-04T00:17:53.096Z,80.51
2019-01-04T00:20:21.575Z,80.53
2019-01-04T00:22:50.047Z,80.63
2019-01-04T00:25:18.541Z,80.39
2019-01-04T00:27:46.972Z,80.69
2019-01-04T00:30:15.501Z,80.84
2019-01-04T00:32:45.469Z,81.16
2019-01-04T00:35:15.025Z,80.92
2019-01-04T00:37:43.460Z,80.58
2019-01-04T00:40:12.005Z,80.79
2019-01-04T00:42:41.990Z,80.73
2019-01-04T00:45:10.696Z,80.87
2019-01-04T00:47:39.123Z,80.71
2019-01-04T00:50:08.841Z,80.52
2019-01-04T00:52:40.718Z,80.58
2019-01-04T00:55:12.151Z,80.60
2019-01-04T00:57:46.172Z,80.47
2019-01-04T01:00:36.675Z,80.45
2019-01-04T01:03:13.893Z,80.28
2019-01-04T01:06:07.634Z,80.75
2019-01-04T01:08:59.574Z,80.79
2019-01-04T01:11:45.791Z,81.34
2019-01-04T01:14:48.185Z,81.31
2019-01-04T01:17:22.240Z,80.97
2019-01-04T01:20:17.277Z,81.38
2019-01-04T01:23:07.986Z,81.21
2019-01-04T01:26:12.165Z,81.34
2019-01-04T01:29:11.651Z,81.32
2019-01-04T01:32:15.906Z,81.33
2019-01-04T01:34:55.812Z,81.55
2019-01-04T01:37:43.629Z,81.17
2019-01-04T01:40:20.538Z,81.26
2019-01-04T01:43:03.660Z,81.08
2019-01-04T01:45:37.802Z,80.77
2019-01-04T01:48:08.691Z,80.84
2019-01-04T01:50:56.801Z,80.66
2019-01-04T01:53:28.391Z,81.02
2019-01-04T01:55:56.847Z,80.64
2019-01-04T01:58:25.282Z,80.86
2019-01-04T02:00:53.813Z,80.71
2019-01-04T02:03:22.313Z,80.74
2019-01-04T02:05:50.796Z,81.13
2019-01-04T02:08:19.229Z,81.71
2019-01-04T02:10:47.687Z,81.96
2019-01-04T02:13:16.390Z,81.68
2019-01-04T02:15:44.839Z,82.07
2019-01-04T02:18:13.311Z,81.83
2019-01-04T02:20:41.797Z,81.97
2019-01-04T02:23:10.234Z,82.04
2019-01-04T02:25:38.788Z,81.71
2019-01-04T02:28:07.213Z,81.97
2019-01-04T02:30:35.899Z,82.34
2019-01-04T02:33:04.366Z,82.37
2019-01-04T02:35:32.821Z,82.66
2019-01-04T02:38:01.301Z,82.21
2019-01-04T02:40:29.725Z,82.25
2019-01-04T02:42:58.208Z,82.83
2019-01-04T02:45:26.666Z,83.01
2019-01-04T02:47:55.147Z,83.38
2019-01-04T02:50:23.574Z,83.48
2019-01-04T02:52:52.062Z,83.50
2019-01-04T02:55:20.510Z,83.68
2019-01-04T02:57:49.052Z,83.99
2019-01-04T03:00:17.559Z,84.21
2019-01-04T03:02:46.020Z,83.85
2019-01-04T03:05:14.569Z,84.17
2019-01-04T03:07:43.125Z,84.66
2019-01-04T03:10:11.587Z,84.43
2019-01-04T03:12:40.074Z,84.76
2019-01-04T03:15:08.607Z,84.25
2019-01-04T03:17:37.119Z,84.57
2019-01-04T03:20:06.113Z,84.37
2019-01-04T03:22:34.582Z,84.53
2019-01-04T03:25:03.004Z,85.02
2019-01-04T03:27:31.477Z,84.96
2019-01-04T03:29:59.919Z,84.98
2019-01-04T03:32:28.460Z,85.12
2019-01-04T03:34:56.907Z,85.27
2019-01-04T03:37:25.363Z,84.85
2019-01-04T03:39:53.869Z,85.09
2019-01-04T03:42:22.484Z,85.04
2019-01-04T03:44:50.954Z,85.00
2019-01-04T03:47:19.412Z,84.63
2019-01-04T03:49:47.941Z,84.79
2019-01-04T03:52:16.642Z,84.88
2019-01-04T03:54:45.143Z,84.95
2019-01-04T03:57:13.652Z,85.14
2019-01-04T03:59:42.113Z,84.88
2019-01-04T04:02:10.556Z,85.07
2019-01-04T04:04:40.008Z,84.93
2019-01-04T04:07:08.455Z,84.63
2019-01-04T04:09:36.909Z,84.52
2019-01-04T04:12:05.351Z,84.68
2019-01-04T04:14:35.390Z,84.47
2019-01-04T04:17:03.817Z,85.03
2019-01-04T04:19:32.361Z,85.07
2019-01-04T04:22:02.949Z,84.83
2019-01-04T04:24:31.411Z,84.71
2019-01-04T04:27:01.346Z,84.37
2019-01-04T04:29:29.795Z,84.42
2019-01-04T04:31:58.343Z,84.94
2019-01-04T04:34:26.757Z,85.16
2019-01-04T04:36:55.392Z,85.04
2019-01-04T04:39:23.853Z,84.89
2019-01-04T04:41:52.311Z,84.85
2019-01-04T04:44:20.769Z,84.88
2019-01-04T04:46:49.226Z,84.75
2019-01-04T04:49:17.709Z,84.46
2019-01-04T04:51:46.212Z,84.91
2019-01-04T04:54:14.675Z,84.88
2019-01-04T04:56:43.147Z,85.08
2019-01-04T04:59:11.625Z,85.09
2019-01-04T05:01:40.057Z,84.90
2019-01-04T05:04:08.530Z,85.00
2019-01-04T05:06:36.979Z,85.11
2019-01-04T05:09:06.829Z,85.10
2019-01-04T05:11:35.704Z,85.02
2019-01-04T05:14:04.264Z,85.00
2019-01-04T05:16:32.819Z,84.73
2019-01-04T05:19:01.573Z,84.78
2019-01-04T05:21:30.315Z,84.74
2019-01-04T05:23:58.795Z,84.72
2019-01-04T05:26:27.222Z,84.83
2019-01-04T05:28:55.717Z,84.65
2019-01-04T05:31:24.153Z,84.72
2019-01-04T05:33:52.782Z,84.27
2019-01-04T05:36:21.218Z,84.47
2019-01-04T05:38:49.702Z,84.62
2019-01-04T05:41:18.190Z,84.29
2019-01-04T05:43:46.580Z,84.37
2019-01-04T05:46:16.077Z,84.12
2019-01-04T05:48:44.542Z,84.22
2019-01-04T05:51:13.043Z,84.38
2019-01-04T05:53:41.442Z,84.39
2019-01-04T05:56:09.964Z,84.27
2019-01-04T05:58:38.505Z,84.41
2019-01-04T06:01:06.990Z,84.26
2019-01-04T06:03:35.557Z,84.30
2019-01-04T06:06:05.261Z,84.17
2019-01-04T06:08:33.953Z,84.15
2019-01-04T06:11:02.409Z,84.07
2019-01-04T06:13:30.848Z,84.36
2019-01-04T06:15:59.327Z,84.62
2019-01-04T06:18:27.896Z,84.32
2019-01-04T06:20:56.346Z,83.98
2019-01-04T06:23:24.816Z,84.07
2019-01-04T06:25:54.762Z,84.00
2019-01-04T06:28:23.228Z,84.06
2019-01-04T06:30:51.661Z,84.36
2019-01-04T06:33:20.126Z,84.29
2019-01-04T06:35:48.808Z,84.28
2019-01-04T06:38:19.020Z,84.47
2019-01-04T06:40:47.468Z,84.56
2019-01-04T06:43:15.937Z,84.81
2019-01-04T06:45:44.569Z,84.69
2019-01-04T06:48:13.071Z,84.44
2019-01-04T06:50:41.512Z,84.53
2019-01-04T06:53:09.956Z,84.95
2019-01-04T06:55:47.042Z,84.76
2019-01-04T06:58:15.492Z,84.36
2019-01-04T07:00:44.784Z,84.63
2019-01-04T07:03:13.604Z,84.54
2019-01-04T07:05:42.036Z,84.74
2019-01-04T07:08:10.484Z,84.67
2019-01-04T07:10:38.932Z,84.60
2019-01-04T07:13:07.384Z,84.51
2019-01-04T07:15:35.853Z,84.64
2019-01-04T07:18:04.415Z,84.63
2019-01-04T07:20:32.861Z,84.70
2019-01-04T07:23:03.881Z,84.66
2019-01-04T07:25:32.329Z,85.07
2019-01-04T07:28:00.943Z,85.44
2019-01-04T07:30:29.435Z,85.82
2019-01-04T07:32:58.015Z,85.83
2019-01-04T07:35:26.676Z,85.69
2019-01-04T07:37:55.215Z,85.66
2019-01-04T07:40:23.662Z,85.60
2019-01-04T07:42:52.249Z,85.96
2019-01-04T07:45:22.539Z,86.01
2019-01-04T07:47:51.028Z,86.05
2019-01-04T07:50:19.442Z,86.09
2019-01-04T07:52:48.012Z,86.50
2019-01-04T07:55:16.454Z,86.40
2019-01-04T07:57:45.008Z,86.57
2019-01-04T08:00:13.736Z,86.97
2019-01-04T08:02:46.518Z,86.75
2019-01-04T08:05:19.058Z,86.70
2019-01-04T08:07:47.495Z,86.71
2019-01-04T08:10:16.019Z,87.04
2019-01-04T08:12:44.445Z,87.11
2019-01-04T08:15:13.146Z,86.77
2019-01-04T08:17:41.604Z,86.64
2019-01-04T08:20:11.895Z,86.57
2019-01-04T08:22:40.514Z,86.62
2019-01-04T08:25:09.299Z,86.52
2019-01-04T08:27:37.861Z,86.86
2019-01-04T08:30:09.671Z,87.53
2019-01-04T08:32:38.255Z,88.24
2019-01-04T08:35:06.841Z,88.61
2019-01-04T08:37:35.325Z,88.75
2019-01-04T08:40:04.698Z,89.29
2019-01-04T08:42:33.199Z,89.33
2019-01-04T08:45:01.974Z,89.78
2019-01-04T08:47:30.484Z,90.03
2019-01-04T08:49:59.000Z,90.04
2019-01-04T08:52:27.501Z,90.16
2019-01-04T08:54:55.893Z,90.96
2019-01-04T08:57:24.419Z,90.98
2019-01-04T08:59:53.507Z,91.19
2019-01-04T09:02:21.965Z,91.01
2019-01-04T09:04:50.402Z,91.53
2019-01-04T09:07:19.637Z,91.33
2019-01-04T09:09:48.273Z,91.11
2019-01-04T09:12:16.777Z,91.12
2019-01-04T09:14:45.468Z,91.39
2019-01-04T09:17:14.178Z,91.28
2019-01-04T09:19:42.722Z,91.63
2019-01-04T09:22:11.347Z,91.58
2019-01-04T09:24:40.043Z,91.42
2019-01-04T09:27:08.477Z,91.24
2019-01-04T09:29:37.777Z,91.28
2019-01-04T09:32:06.238Z,91.33
2019-01-04T09:34:34.773Z,91.09
2019-01-04T09:37:03.236Z,91.04
2019-01-04T09:39:31.695Z,90.74
2019-01-04T09:42:01.189Z,90.95
2019-01-04T09:44:29.676Z,90.72
2019-01-04T09:46:58.144Z,90.91
2019-01-04T09:49:26.606Z,90.54
2019-01-04T09:51:55.109Z,90.23
2019-01-04T09:54:23.612Z,90.70
2019-01-04T09:56:52.168Z,90.62
2019-01-04T09:59:20.649Z,90.96
2019-01-04T10:01:49.155Z,90.53
2019-01-04T10:04:17.599Z,90.74
2019-01-04T10:06:46.283Z,90.69
2019-01-04T10:09:14.905Z,90.51
2019-01-04T10:11:43.351Z,90.36
2019-01-04T10:14:12.876Z,90.29
2019-01-04T10:16:41.346Z,90.02
2019-01-04T10:19:09.834Z,90.22
2019-01-04T10:21:38.284Z,90.10
2019-01-04T10:24:07.562Z,90.32
2019-01-04T10:26:36.100Z,90.07
2019-01-04T10:29:04.610Z,89.80
2019-01-04T10:31:33.073Z,89.62
2019-01-04T10:34:01.507Z,90.38
2019-01-04T10:36:29.966Z,90.06
2019-01-04T10:38:58.467Z,90.13
2019-01-04T10:41:26.995Z,90.49
2019-01-04T10:43:55.470Z,90.92
2019-01-04T10:46:24.042Z,90.61
2019-01-04T10:48:52.567Z,90.83
2019-01-04T10:51:22.075Z,91.04
2019-01-04T10:53:50.521Z,92.44
2019-01-04T10:56:20.537Z,91.55
2019-01-04T10:58:48.950Z,90.55
2019-01-04T11:01:17.386Z,89.97
2019-01-04T11:03:49.883Z,89.87
2019-01-04T11:06:18.285Z,89.94
2019-01-04T11:08:47.784Z,89.76
2019-01-04T11:11:16.280Z,89.82
2019-01-04T11:13:47.679Z,90.08
2019-01-04T11:16:16.116Z,89.87
2019-01-04T11:18:44.619Z,90.22
2019-01-04T11:21:13.118Z,90.41
2019-01-04T11:23:53.281Z,90.14
2019-01-04T11:26:24.880Z,90.07
2019-01-04T11:29:22.949Z,90.10
2019-01-04T11:32:06.267Z,90.07
2019-01-04T11:34:40.655Z,90.47
2019-01-04T11:37:28.315Z,90.39
2019-01-04T11:40:23.230Z,90.32
2019-01-04T11:43:06.263Z,90.31
2019-01-04T11:45:37.805Z,90.08
2019-01-04T11:48:14.939Z,90.32
2019-01-04T11:50:54.857Z,90.62
2019-01-04T11:53:23.443Z,90.54
2019-01-04T11:55:51.886Z,90.44
2019-01-04T11:58:20.327Z,90.64
2019-01-04T12:00:48.779Z,90.80
2019-01-04T12:03:17.230Z,90.88
2019-01-04T12:05:45.691Z,90.62
2019-01-04T12:08:14.216Z,90.79
2019-01-04T12:10:42.806Z,90.60
2019-01-04T12:13:11.319Z,90.75
2019-01-04T12:15:39.931Z,90.88
2019-01-04T12:18:08.362Z,91.12
2019-01-04T12:20:37.231Z,91.74
2019-01-04T12:23:11.161Z,91.74
2019-01-04T12:25:36.138Z,91.67
2019-01-04T12:28:04.720Z,91.51
2019-01-04T12:30:33.118Z,91.51
2019-01-04T12:33:01.649Z,91.34
2019-01-04T12:35:30.125Z,91.57
2019-01-04T12:37:58.615Z,91.73
2019-01-04T12:40:27.118Z,91.69
2019-01-04T12:42:55.558Z,91.88
2019-01-04T12:45:24.068Z,91.61
2019-01-04T12:47:52.518Z,91.53
2019-01-04T12:50:21.057Z,91.87
2019-01-04T12:52:49.577Z,91.79
2019-01-04T12:55:18.081Z,91.73
2019-01-04T12:57:46.568Z,91.77
2019-01-04T13:00:15.292Z,91.74
2019-01-04T13:02:43.752Z,91.73
2019-01-04T13:05:12.311Z,91.46
2019-01-04T13:07:40.743Z,91.85
2019-01-04T13:10:09.278Z,91.76
2019-01-04T13:12:37.861Z,91.71
2019-01-04T13:15:08.201Z,91.88
2019-01-04T13:17:36.607Z,91.86
2019-01-04T13:20:05.389Z,91.84
2019-01-04T13:22:33.847Z,91.80
2019-01-04T13:25:02.290Z,92.06
2019-01-04T13:27:30.708Z,92.00
2019-01-04T13:29:59.283Z,91.87
2019-01-04T13:32:27.800Z,91.93
2019-01-04T13:34:56.407Z,91.80
2019-01-04T13:37:25.046Z,91.62
2019-01-04T13:39:53.638Z,91.96
2019-01-04T13:42:22.156Z,92.13
2019-01-04T13:44:50.601Z,92.16
2019-01-04T13:47:19.081Z,92.03
2019-01-04T14:05:29.139Z,92.71
2019-01-04T14:07:58.028Z,92.48
2019-01-04T14:10:25.901Z,92.37
2019-01-04T14:12:53.593Z,92.00
2019-01-04T14:15:21.426Z,91.79
2019-01-04T14:17:49.183Z,91.63
2019-01-04T14:20:16.865Z,91.45
2019-01-04T14:22:44.552Z,91.52
2019-01-04T14:25:12.272Z,91.40
2019-01-04T14:27:40.082Z,91.46
2019-01-04T14:30:09.442Z,91.49
2019-01-04T14:32:37.255Z,91.44
2019-01-04T14:35:05.966Z,91.17
2019-01-04T14:37:34.212Z,91.25
2019-01-04T14:40:02.089Z,91.26
2019-01-04T14:42:29.946Z,91.20
2019-01-04T14:44:57.725Z,91.14
2019-01-04T14:47:25.514Z,91.20
2019-01-04T14:49:53.171Z,91.33
2019-01-04T14:52:20.943Z,91.55
2019-01-04T14:54:48.663Z,91.50
2019-01-04T14:57:16.335Z,91.50
2019-01-04T14:59:44.050Z,91.72
2019-01-04T15:02:11.728Z,91.73
2019-01-04T15:04:39.391Z,91.72
2019-01-04T15:07:07.196Z,92.35
2019-01-04T15:09:35.260Z,92.57
2019-01-04T15:12:03.043Z,92.56
2019-01-04T15:14:30.880Z,92.87
2019-01-04T15:16:58.648Z,92.80
2019-01-04T15:19:26.460Z,92.42
2019-01-04T15:21:54.279Z,92.60
2019-01-04T15:24:22.035Z,92.29
2019-01-04T15:26:52.820Z,92.43
2019-01-04T15:29:21.991Z,92.44
2019-01-04T15:31:49.738Z,92.11
2019-01-04T15:34:17.480Z,92.03
2019-01-04T15:36:45.835Z,92.24
2019-01-04T15:39:13.590Z,92.38
2019-01-04T15:41:41.491Z,92.48
2019-01-04T15:44:09.427Z,92.52
2019-01-04T15:46:37.259Z,92.45
2019-01-04T15:49:05.304Z,92.40
2019-01-04T15:51:33.023Z,92.23
2019-01-04T15:54:00.738Z,92.38
2019-01-04T15:56:28.550Z,92.91
2019-01-04T15:58:56.255Z,92.09
2019-01-04T16:01:23.983Z,92.18
2019-01-04T16:03:51.727Z,92.36
2019-01-04T16:06:19.404Z,92.94
2019-01-04T16:08:47.295Z,93.20
2019-01-04T16:11:15.139Z,93.11
2019-01-04T16:13:43.071Z,93.06
2019-01-04T16:16:10.751Z,93.03
2019-01-04T16:18:38.436Z,93.29
2019-01-04T16:21:06.183Z,93.20
2019-01-04T16:23:33.887Z,93.26
2019-01-04T16:26:01.583Z,93.58
2019-01-04T16:28:29.350Z,93.49
2019-01-04T16:30:57.068Z,93.18
2019-01-04T16:33:24.757Z,93.13
2019-01-04T16:35:52.640Z,93.24
2019-01-04T16:38:20.423Z,93.56
2019-01-04T16:40:48.218Z,93.61
2019-01-04T16:43:15.897Z,93.57
2019-01-04T16:45:44.815Z,93.42
2019-01-04T16:48:12.630Z,93.16
2019-01-04T16:50:40.293Z,93.19
2019-01-04T16:53:07.992Z,93.01
2019-01-04T16:55:35.660Z,93.26
2019-01-04T16:58:03.423Z,93.13
2019-01-04T17:00:31.225Z,93.25
2019-01-04T17:02:58.974Z,92.89
2019-01-04T17:05:26.748Z,92.95
2019-01-04T17:07:54.928Z,93.08
2019-01-04T17:10:22.695Z,93.02
2019-01-04T17:12:50.444Z,92.92
2019-01-04T17:15:18.208Z,92.98
2019-01-04T17:17:45.870Z,93.02
2019-01-04T17:20:13.658Z,93.38
2019-01-04T17:22:41.386Z,93.58
2019-01-04T17:25:09.130Z,93.53
2019-01-04T17:27:36.791Z,93.53
2019-01-04T17:30:05.933Z,93.49
2019-01-04T17:32:33.601Z,93.57
2019-01-04T17:35:01.404Z,93.50
2019-01-04T17:37:29.199Z,93.48
2019-01-04T17:39:56.930Z,93.60
2019-01-04T17:42:25.250Z,93.67
2019-01-04T17:44:52.921Z,93.83
2019-01-04T17:47:20.567Z,93.88
2019-01-04T17:49:48.256Z,93.83
2019-01-04T17:52:15.915Z,93.97
2019-01-04T17:54:43.630Z,94.28
2019-01-04T17:57:12.508Z,93.90
2019-01-04T17:59:40.553Z,93.86
2019-01-04T18:02:08.230Z,93.90
2019-01-04T18:04:36.049Z,93.85
2019-01-04T18:07:03.895Z,94.04
2019-01-04T18:09:31.714Z,94.31
2019-01-04T18:11:59.347Z,94.15
2019-01-04T18:14:27.055Z,94.24
2019-01-04T18:16:54.696Z,94.23
2019-01-04T18:19:22.361Z,94.30
2019-01-04T18:21:50.024Z,94.03
2019-01-04T18:24:17.771Z,94.06
2019-01-04T18:26:45.512Z,94.16
2019-01-04T18:29:13.287Z,94.57
2019-01-04T18:31:41.125Z,94.79
2019-01-04T18:34:08.921Z,94.69
2019-01-04T18:36:37.474Z,94.93
2019-01-04T18:39:07.216Z,94.57
2019-01-04T18:41:34.966Z,94.63
2019-01-04T18:44:02.746Z,94.77
2019-01-04T18:46:30.409Z,94.61
2019-01-04T18:48:58.490Z,94.68
2019-01-04T18:51:26.240Z,94.61
2019-01-04T18:53:54.017Z,94.43
2019-01-04T18:56:21.905Z,94.46
2019-01-04T18:58:49.684Z,94.38
2019-01-04T19:01:17.541Z,94.38
2019-01-04T19:20:54.190Z,94.43
2019-01-04T19:38:42.536Z,100.00
2019-01-04T19:41:12.293Z,100.00
2019-01-04T19:43:40.067Z,94.43
2019-01-04T19:46:09.826Z,94.01
2019-01-04T19:48:37.749Z,94.23
2019-01-04T19:51:05.609Z,94.30
2019-01-04T19:53:33.451Z,94.29
2019-01-04T19:56:01.395Z,94.29
2019-01-04T19:58:29.124Z,94.13
2019-01-04T20:00:56.933Z,94.03
2019-01-04T20:03:24.697Z,94.02
2019-01-04T20:06:04.807Z,93.89
2019-01-04T20:09:03.534Z,94.02
2019-01-04T20:12:07.360Z,93.86
2019-01-04T20:14:53.291Z,93.82
2019-01-04T20:17:26.860Z,93.87
2019-01-04T20:20:02.201Z,93.88
2019-01-04T20:22:40.812Z,94.14
2019-01-04T20:25:19.128Z,94.24
2019-01-04T20:27:57.644Z,94.00
2019-01-04T20:30:43.217Z,94.02
2019-01-04T20:33:12.622Z,94.06
2019-01-04T20:35:58.325Z,93.97
2019-01-04T20:38:29.107Z,94.02
2019-01-04T20:41:12.046Z,94.07
2019-01-04T20:43:44.531Z,93.88
2019-01-04T20:46:16.655Z,94.06
2019-01-04T20:48:51.778Z,94.09
2019-01-04T20:51:21.160Z,94.12
2019-01-04T20:54:02.584Z,93.99
2019-01-04T20:56:38.228Z,94.04
2019-01-04T20:59:13.259Z,94.16
2019-01-04T21:01:52.161Z,94.16
2019-01-04T21:04:27.483Z,93.94
2019-01-04T21:07:08.745Z,93.92
2019-01-04T21:09:46.676Z,93.82
2019-01-04T21:12:33.785Z,93.83
2019-01-04T21:15:03.290Z,93.79
2019-01-04T21:17:48.977Z,93.88
2019-01-04T21:20:18.440Z,94.05
2019-01-04T21:22:56.787Z,94.00
2019-01-04T21:25:26.160Z,93.96
2019-01-04T21:28:07.442Z,94.20
2019-01-04T21:30:36.981Z,94.14
2019-01-04T21:33:25.580Z,94.04
2019-01-04T21:36:11.650Z,93.94
2019-01-04T21:38:47.725Z,93.97
2019-01-04T21:41:30.406Z,93.95
2019-01-04T21:44:15.912Z,93.99
2019-01-04T21:46:54.323Z,93.90
2019-01-04T21:49:40.202Z,94.00
2019-01-04T21:52:26.771Z,94.27
2019-01-04T21:54:56.190Z,94.25
2019-01-04T21:57:25.577Z,94.45
2019-01-04T22:00:13.104Z,94.40
2019-01-04T22:02:42.446Z,94.36
2019-01-04T22:05:14.803Z,94.27
2019-01-04T22:07:56.555Z,94.19
2019-01-04T22:10:41.918Z,94.25
2019-01-04T22:13:27.653Z,94.34
2019-01-04T22:16:13.342Z,94.19
2019-01-04T22:18:57.457Z,94.19
2019-01-04T22:21:43.457Z,94.54
2019-01-04T22:24:25.157Z,94.60
2019-01-04T22:27:11.264Z,94.31
2019-01-04T22:29:55.795Z,94.32
2019-01-04T22:32:33.915Z,94.17
2019-01-04T22:35:03.231Z,94.62
2019-01-04T22:37:47.430Z,94.80
2019-01-04T22:40:35.518Z,94.89
2019-01-04T22:43:04.995Z,94.90
2019-01-04T22:45:37.196Z,94.79
2019-01-04T22:48:06.526Z,95.03
2019-01-04T22:50:52.396Z,94.92
2019-01-04T22:53:27.663Z,95.01
2019-01-04T22:56:13.169Z,94.96
2019-01-04T22:58:57.755Z,94.98
2019-01-04T23:01:27.692Z,94.92
2019-01-04T23:04:13.287Z,94.98
2019-01-04T23:06:54.484Z,95.03
2019-01-04T23:09:29.966Z,94.93
2019-01-04T23:11:59.379Z,94.95
2019-01-04T23:14:28.793Z,95.10
2019-01-04T23:17:09.915Z,95.10
2019-01-04T23:19:42.955Z,95.00
2019-01-04T23:22:29.801Z,95.06
2019-01-04T23:25:05.032Z,94.96
2019-01-04T23:27:40.389Z,94.92
2019-01-04T23:30:12.491Z,94.57
2019-01-04T23:32:54.113Z,94.63
2019-01-04T23:35:39.984Z,94.61
2019-01-04T23:38:09.367Z,94.52
2019-01-04T23:40:38.733Z,94.50
2019-01-04T23:43:22.858Z,94.30
2019-01-04T23:45:52.225Z,94.21
2019-01-04T23:48:37.975Z,94.17
2019-01-04T23:51:23.276Z,94.18
2019-01-04T23:54:08.802Z,94.27
2019-01-04T23:56:41.232Z,94.34
2019-01-04T23:59:26.820Z,94.28
